createdAt,value
2023-02-19T00:05:42.300Z,5.90
2023-02-19T00:10:42.308Z,6.30
2023-02-19T00:15:42.296Z,6.30
2023-02-19T00:20:42.294Z,5.70
2023-02-19T00:40:42.409Z,6.90
2023-02-19T00:50:42.830Z,6.80
2023-02-19T00:55:42.390Z,6.80
2023-02-19T01:00:42.376Z,8.00
2023-02-19T01:05:42.379Z,8.00
2023-02-19T01:10:42.891Z,8.80
2023-02-19T01:15:43.730Z,8.80
2023-02-19T01:20:43.843Z,8.50
2023-02-19T01:30:42.513Z,8.20
2023-02-19T01:40:42.505Z,7.50
2023-02-19T01:45:44.071Z,7.50
2023-02-19T02:05:54.861Z,4.00
2023-02-19T02:10:43.313Z,3.90
2023-02-19T02:16:02.555Z,3.90
2023-02-19T02:20:55.879Z,3.70
2023-02-19T02:25:53.633Z,3.70
2023-02-19T02:30:45.273Z,4.00
2023-02-19T02:35:49.838Z,4.00
2023-02-19T02:40:44.012Z,4.30
2023-02-19T02:45:42.796Z,4.30
2023-02-19T02:55:45.210Z,3.80
2023-02-19T03:00:58.266Z,4.00
2023-02-19T03:05:51.924Z,4.00
2023-02-19T03:10:50.228Z,4.10
2023-02-19T03:15:58.619Z,4.10
2023-02-19T03:20:47.603Z,4.30
2023-02-19T03:35:47.606Z,4.40
2023-02-19T04:05:47.848Z,4.40
2023-02-19T04:10:45.878Z,3.80
2023-02-19T04:15:45.030Z,3.80
2023-02-19T04:25:45.638Z,3.50
2023-02-19T04:30:43.496Z,3.60
2023-02-19T04:35:42.958Z,3.60
2023-02-19T04:45:43.026Z,3.10
2023-02-19T04:50:43.094Z,4.30
2023-02-19T05:05:43.042Z,4.20
2023-02-19T05:10:43.020Z,4.80
2023-02-19T05:15:54.252Z,4.80
2023-02-19T05:20:43.051Z,4.80
2023-02-19T05:25:43.238Z,4.80
2023-02-19T05:30:46.620Z,5.00
2023-02-19T05:45:43.139Z,5.30
2023-02-19T05:50:43.241Z,4.70
2023-02-19T05:55:43.180Z,4.70
2023-02-19T06:15:43.275Z,4.80
2023-02-19T06:20:43.233Z,4.50
2023-02-19T06:25:43.239Z,4.50
2023-02-19T06:30:43.258Z,5.30
2023-02-19T06:40:43.261Z,5.60
2023-02-19T07:05:43.447Z,5.90
2023-02-19T07:10:44.645Z,6.10
2023-02-19T07:15:43.354Z,6.10
2023-02-19T07:20:43.372Z,5.60
2023-02-19T07:30:43.499Z,5.70
2023-02-19T07:35:48.185Z,5.70
2023-02-19T07:40:51.251Z,5.40
2023-02-19T07:45:43.558Z,5.40
2023-02-19T07:50:54.281Z,5.40
2023-02-19T07:55:43.543Z,5.40
2023-02-19T08:05:43.950Z,5.40
2023-02-19T08:10:53.469Z,5.40
2023-02-19T08:15:44.175Z,5.40
2023-02-19T08:20:43.665Z,5.90
2023-02-19T08:30:45.748Z,6.30
2023-02-19T08:35:44.188Z,6.30
2023-02-19T08:45:46.290Z,6.60
2023-02-19T08:50:43.588Z,6.40
2023-02-19T08:55:43.580Z,6.40
2023-02-19T09:05:45.795Z,6.30
2023-02-19T09:10:43.669Z,5.10
2023-02-19T09:15:43.696Z,5.10
2023-02-19T09:20:43.680Z,3.90
2023-02-19T09:25:43.817Z,3.90
2023-02-19T09:35:43.746Z,3.20
2023-02-19T09:40:43.817Z,2.40
2023-02-19T09:45:43.769Z,2.40
2023-02-19T09:55:44.229Z,2.60
2023-02-19T10:00:47.668Z,2.50
2023-02-19T10:05:43.985Z,2.50
2023-02-19T10:10:44.529Z,1.80
2023-02-19T10:15:49.423Z,1.80
2023-02-19T10:20:45.404Z,1.90
2023-02-19T10:25:53.238Z,1.90
2023-02-19T10:30:50.299Z,2.70
2023-02-19T10:35:54.546Z,2.70
2023-02-19T10:40:45.161Z,3.00
2023-02-19T10:50:55.018Z,1.70
2023-02-19T11:00:43.916Z,1.80
2023-02-19T11:10:47.217Z,1.60
2023-02-19T11:15:51.753Z,1.60
2023-02-19T11:20:54.739Z,1.60
2023-02-19T11:25:47.674Z,1.60
2023-02-19T11:30:45.601Z,1.60
2023-02-19T11:35:44.828Z,1.60
2023-02-19T11:40:47.291Z,1.80
2023-02-19T11:45:51.116Z,1.80
2023-02-19T12:00:58.425Z,1.40
2023-02-19T12:05:51.061Z,1.40
2023-02-19T12:11:03.984Z,3.10
2023-02-19T12:21:02.588Z,7.70
2023-02-19T12:25:54.465Z,7.70
2023-02-19T12:30:54.111Z,3.00
2023-02-19T12:41:01.524Z,0.80
2023-02-19T12:45:55.243Z,0.80
2023-02-19T12:50:48.375Z,0.90
2023-02-19T12:52:23.692Z,0.90
2023-02-19T12:52:27.768Z,0.90
2023-02-19T12:52:35.621Z,0.90
2023-02-19T12:52:39.867Z,0.90
2023-02-19T13:00:50.514Z,0.90
2023-02-19T13:05:53.053Z,0.90
2023-02-19T13:10:50.504Z,0.80
2023-02-19T13:17:00.770Z,0.80
2023-02-19T13:17:16.032Z,0.80
2023-02-19T13:17:18.284Z,0.80
2023-02-19T13:17:27.557Z,0.80
2023-02-19T13:20:46.838Z,0.90
2023-02-19T13:26:00.957Z,0.90
2023-02-19T13:30:58.211Z,1.00
2023-02-19T13:36:04.918Z,1.00
2023-02-19T13:40:54.664Z,0.90
2023-02-19T13:45:45.372Z,0.90
2023-02-19T13:50:44.462Z,1.00
2023-02-19T13:55:50.472Z,1.00
2023-02-19T14:00:49.375Z,1.00
2023-02-19T14:05:57.617Z,1.00
2023-02-19T14:10:51.791Z,1.00
2023-02-19T14:15:48.628Z,1.00
2023-02-19T14:20:44.826Z,1.00
2023-02-19T14:25:48.654Z,1.00
2023-02-19T14:31:04.395Z,1.00
2023-02-19T14:40:45.697Z,1.20
2023-02-19T14:45:52.136Z,1.20
2023-02-19T14:50:49.057Z,0.90
2023-02-19T14:55:45.673Z,0.90
2023-02-19T15:00:44.615Z,1.00
2023-02-19T15:05:44.626Z,1.00
2023-02-19T15:10:45.574Z,1.10
2023-02-19T15:15:45.421Z,1.10
2023-02-19T15:20:44.902Z,1.00
2023-02-19T15:25:44.657Z,1.00
2023-02-19T15:30:44.804Z,1.00
2023-02-19T15:35:55.763Z,1.00
2023-02-19T15:40:46.316Z,1.30
2023-02-19T15:45:46.296Z,1.30
2023-02-19T15:50:51.564Z,1.30
2023-02-19T15:55:57.367Z,1.30
2023-02-19T16:10:53.048Z,1.40
2023-02-19T16:15:56.451Z,1.40
2023-02-19T16:20:46.483Z,1.60
2023-02-19T16:25:45.974Z,1.60
2023-02-19T16:30:45.075Z,1.40
2023-02-19T16:35:47.322Z,1.40
2023-02-19T16:41:04.683Z,1.40
2023-02-19T16:45:46.319Z,1.40
2023-02-19T16:50:45.291Z,2.20
2023-02-19T17:00:45.929Z,1.90
2023-02-19T17:05:45.489Z,1.90
2023-02-19T17:10:44.923Z,1.40
2023-02-19T17:15:44.942Z,1.40
2023-02-19T17:20:50.758Z,1.80
2023-02-19T17:25:45.089Z,1.80
2023-02-19T17:30:44.911Z,1.90
2023-02-19T17:35:44.941Z,1.90
2023-02-19T17:40:44.968Z,2.60
2023-02-19T17:50:45.049Z,2.20
2023-02-19T17:55:45.096Z,2.20
2023-02-19T18:00:45.050Z,2.60
2023-02-19T18:10:45.051Z,1.60
2023-02-19T18:15:45.055Z,1.60
2023-02-19T18:25:45.995Z,1.90
2023-02-19T18:30:45.299Z,2.20
2023-02-19T18:35:48.205Z,2.20
2023-02-19T18:40:45.774Z,2.80
2023-02-19T18:45:45.645Z,2.80
2023-02-19T18:50:45.162Z,2.50
2023-02-19T18:55:45.167Z,2.50
2023-02-19T19:05:45.202Z,1.80
2023-02-19T19:10:45.179Z,1.70
2023-02-19T19:15:48.796Z,1.70
2023-02-19T19:25:45.220Z,1.70
2023-02-19T19:30:45.411Z,1.90
2023-02-19T19:35:45.275Z,1.90
2023-02-19T19:40:45.292Z,2.00
2023-02-19T19:50:45.354Z,1.90
2023-02-19T19:55:45.280Z,1.90
2023-02-19T20:05:49.221Z,1.90
2023-02-19T20:10:45.566Z,1.60
2023-02-19T20:20:45.433Z,1.40
2023-02-19T20:25:45.364Z,1.40
2023-02-19T20:35:45.391Z,3.20
2023-02-19T20:40:45.578Z,3.20
2023-02-19T20:45:46.767Z,3.20
2023-02-19T20:50:45.596Z,3.30
2023-02-19T20:55:45.430Z,3.30
2023-02-19T21:00:45.569Z,4.20
2023-02-19T21:10:45.661Z,5.30
2023-02-19T21:15:45.554Z,5.30
2023-02-19T21:35:45.565Z,7.20
2023-02-19T21:50:46.738Z,6.80
2023-02-19T22:00:45.644Z,7.00
2023-02-19T22:05:45.637Z,7.00
2023-02-19T22:20:45.692Z,6.80
2023-02-19T22:30:45.727Z,6.10
2023-02-19T22:35:45.701Z,6.10
2023-02-19T22:40:45.752Z,5.50
2023-02-19T22:50:45.853Z,5.70
2023-02-19T22:55:45.766Z,5.70
2023-02-19T23:05:45.801Z,5.30
2023-02-19T23:10:45.798Z,6.20
2023-02-19T23:15:45.909Z,6.20
2023-02-19T23:40:46.001Z,7.70
2023-02-19T23:45:46.064Z,7.70
2023-02-19T23:50:45.940Z,8.30
